createdAt,value
2022-08-30T00:00:12.540Z,100.00
2022-08-30T00:02:39.149Z,100.00
2022-08-30T00:05:06.036Z,100.00
2022-08-30T00:07:32.679Z,100.00
2022-08-30T00:09:59.238Z,100.00
2022-08-30T00:12:26.483Z,100.00
2022-08-30T00:14:53.048Z,100.00
2022-08-30T00:17:19.575Z,100.00
2022-08-30T00:19:46.112Z,100.00
2022-08-30T00:22:13.264Z,100.00
2022-08-30T00:24:39.732Z,100.00
2022-08-30T00:27:06.212Z,100.00
2022-08-30T00:29:32.690Z,100.00
2022-08-30T00:31:59.415Z,100.00
2022-08-30T00:34:26.026Z,100.00
2022-08-30T00:36:52.503Z,100.00
2022-08-30T00:39:19.589Z,100.00
2022-08-30T00:41:46.747Z,100.00
2022-08-30T00:44:13.747Z,100.00
2022-08-30T00:46:40.348Z,100.00
2022-08-30T00:49:10.844Z,100.00
2022-08-30T00:51:37.922Z,100.00
2022-08-30T00:54:05.383Z,100.00
2022-08-30T00:56:33.934Z,100.00
2022-08-30T00:59:02.797Z,100.00
2022-08-30T01:01:32.005Z,100.00
2022-08-30T01:04:01.543Z,100.00
2022-08-30T01:06:32.645Z,100.00
2022-08-30T01:09:00.667Z,100.00
2022-08-30T01:11:28.175Z,100.00
2022-08-30T01:13:56.165Z,100.00
2022-08-30T01:16:25.332Z,100.00
2022-08-30T01:18:57.420Z,100.00
2022-08-30T01:21:39.805Z,100.00
2022-08-30T01:24:08.539Z,100.00
2022-08-30T01:26:36.513Z,100.00
2022-08-30T01:29:07.752Z,100.00
2022-08-30T01:31:36.970Z,100.00
2022-08-30T01:34:07.550Z,100.00
2022-08-30T01:36:44.608Z,100.00
2022-08-30T01:39:14.496Z,100.00
2022-08-30T01:41:41.640Z,100.00
2022-08-30T01:44:10.958Z,100.00
2022-08-30T01:46:47.072Z,100.00
2022-08-30T01:49:16.956Z,100.00
2022-08-30T01:51:45.873Z,100.00
2022-08-30T01:54:12.767Z,100.00
2022-08-30T01:56:39.773Z,100.00
2022-08-30T01:59:06.402Z,100.00
2022-08-30T02:01:37.139Z,100.00
2022-08-30T02:04:04.483Z,100.00
2022-08-30T02:06:31.479Z,100.00
2022-08-30T02:08:58.453Z,100.00
2022-08-30T02:11:25.318Z,100.00
2022-08-30T02:13:51.837Z,100.00
2022-08-30T02:16:24.469Z,100.00
2022-08-30T02:18:53.206Z,100.00
2022-08-30T02:21:20.633Z,100.00
2022-08-30T02:23:47.149Z,100.00
2022-08-30T02:26:14.219Z,100.00
2022-08-30T02:28:42.791Z,100.00
2022-08-30T02:31:20.476Z,100.00
2022-08-30T02:33:49.093Z,100.00
2022-08-30T02:36:15.850Z,100.00
2022-08-30T02:38:42.367Z,100.00
2022-08-30T02:41:08.908Z,100.00
2022-08-30T02:43:35.406Z,100.00
2022-08-30T02:46:01.970Z,100.00
2022-08-30T02:48:28.559Z,100.00
2022-08-30T02:50:55.113Z,100.00
2022-08-30T02:53:22.603Z,100.00
2022-08-30T02:55:50.080Z,100.00
2022-08-30T02:58:16.638Z,100.00
2022-08-30T03:00:43.430Z,100.00
2022-08-30T03:03:10.794Z,100.00
2022-08-30T03:05:37.919Z,100.00
2022-08-30T03:08:07.260Z,100.00
2022-08-30T03:10:33.886Z,100.00
2022-08-30T03:13:00.892Z,100.00
2022-08-30T03:15:27.556Z,100.00
2022-08-30T03:17:55.908Z,100.00
2022-08-30T03:20:23.938Z,100.00
2022-08-30T03:22:50.963Z,100.00
2022-08-30T03:25:18.099Z,100.00
2022-08-30T03:27:44.580Z,100.00
2022-08-30T03:30:12.269Z,100.00
2022-08-30T03:32:39.481Z,100.00
2022-08-30T03:35:07.977Z,100.00
2022-08-30T03:37:35.389Z,100.00
2022-08-30T03:40:03.646Z,100.00
2022-08-30T03:42:31.514Z,100.00
2022-08-30T03:44:58.121Z,100.00
2022-08-30T03:47:24.690Z,100.00
2022-08-30T03:49:51.165Z,100.00
2022-08-30T03:52:17.680Z,100.00
2022-08-30T03:54:45.261Z,100.00
2022-08-30T03:57:20.337Z,100.00
2022-08-30T03:59:51.761Z,100.00
2022-08-30T04:02:18.401Z,100.00
2022-08-30T04:04:44.963Z,100.00
2022-08-30T04:07:11.684Z,100.00
2022-08-30T04:09:38.298Z,100.00
2022-08-30T04:12:04.981Z,100.00
2022-08-30T04:14:31.565Z,100.00
2022-08-30T04:16:58.215Z,100.00
2022-08-30T04:19:24.929Z,100.00
2022-08-30T04:21:51.482Z,100.00
2022-08-30T04:24:18.025Z,100.00
2022-08-30T04:26:44.491Z,100.00
2022-08-30T04:29:12.309Z,100.00
2022-08-30T04:31:38.848Z,100.00
2022-08-30T04:34:05.454Z,100.00
2022-08-30T04:36:31.952Z,100.00
2022-08-30T04:38:58.501Z,100.00
2022-08-30T04:41:25.201Z,100.00
2022-08-30T04:43:51.868Z,100.00
2022-08-30T04:46:19.768Z,100.00
2022-08-30T04:48:47.311Z,100.00
2022-08-30T04:51:17.358Z,100.00
2022-08-30T04:53:45.114Z,100.00
2022-08-30T04:56:18.098Z,100.00
2022-08-30T04:58:46.977Z,100.00
2022-08-30T05:01:20.560Z,100.00
2022-08-30T05:03:51.898Z,100.00
2022-08-30T05:06:19.162Z,100.00
2022-08-30T05:08:46.892Z,100.00
2022-08-30T05:11:14.814Z,100.00
2022-08-30T05:13:41.332Z,100.00
2022-08-30T05:16:08.754Z,100.00
2022-08-30T05:18:36.655Z,100.00
2022-08-30T05:21:04.254Z,100.00
2022-08-30T05:23:31.123Z,100.00
2022-08-30T05:25:57.688Z,100.00
2022-08-30T05:28:26.317Z,100.00
2022-08-30T05:30:53.158Z,100.00
2022-08-30T05:33:19.706Z,100.00
2022-08-30T05:35:46.239Z,100.00
2022-08-30T05:38:12.800Z,100.00
2022-08-30T05:40:43.570Z,100.00
2022-08-30T05:43:11.307Z,100.00
2022-08-30T05:45:38.433Z,100.00
2022-08-30T05:48:05.399Z,100.00
2022-08-30T05:50:31.932Z,100.00
2022-08-30T05:52:58.447Z,100.00
2022-08-30T05:55:25.062Z,100.00
2022-08-30T05:57:51.708Z,100.00
2022-08-30T06:00:19.215Z,100.00
2022-08-30T06:02:46.030Z,100.00
2022-08-30T06:05:14.332Z,100.00
2022-08-30T06:07:41.548Z,100.00
2022-08-30T06:10:08.399Z,100.00
2022-08-30T06:12:34.961Z,100.00
2022-08-30T06:15:01.736Z,100.00
2022-08-30T06:17:28.241Z,100.00
2022-08-30T06:19:54.749Z,100.00
2022-08-30T06:22:21.244Z,100.00
2022-08-30T06:24:57.441Z,100.00
2022-08-30T06:27:24.609Z,100.00
2022-08-30T06:29:52.326Z,100.00
2022-08-30T06:32:19.162Z,100.00
2022-08-30T06:34:45.697Z,100.00
2022-08-30T06:37:12.291Z,100.00
2022-08-30T06:39:57.568Z,100.00
2022-08-30T06:42:24.562Z,100.00
2022-08-30T06:44:51.522Z,100.00
2022-08-30T06:47:18.271Z,100.00
2022-08-30T06:49:44.806Z,100.00
2022-08-30T06:52:11.666Z,100.00
2022-08-30T06:54:38.748Z,100.00
2022-08-30T06:57:05.406Z,100.00
2022-08-30T06:59:32.455Z,100.00
2022-08-30T07:01:59.112Z,100.00
2022-08-30T07:04:25.976Z,100.00
2022-08-30T07:06:53.339Z,100.00
2022-08-30T07:09:22.888Z,100.00
2022-08-30T07:11:50.243Z,100.00
2022-08-30T07:14:16.792Z,100.00
2022-08-30T07:16:44.537Z,100.00
2022-08-30T07:19:20.257Z,100.00
2022-08-30T07:21:49.289Z,100.00
2022-08-30T07:24:17.068Z,100.00
2022-08-30T07:26:48.916Z,100.00
2022-08-30T07:29:17.401Z,100.00
2022-08-30T07:31:44.456Z,98.73
2022-08-30T07:34:11.037Z,98.29
2022-08-30T07:36:38.613Z,99.68
2022-08-30T07:39:06.152Z,97.32
2022-08-30T07:41:36.362Z,97.98
2022-08-30T07:44:03.358Z,98.04
2022-08-30T07:46:30.138Z,93.46
2022-08-30T07:48:58.774Z,94.29
2022-08-30T07:51:27.531Z,90.90
2022-08-30T07:53:55.065Z,89.46
2022-08-30T07:56:22.349Z,90.44
2022-08-30T07:58:49.093Z,89.23
2022-08-30T08:01:17.778Z,88.02
2022-08-30T08:03:44.742Z,86.52
2022-08-30T08:06:13.818Z,85.07
2022-08-30T08:08:41.554Z,84.41
2022-08-30T08:11:17.483Z,85.35
2022-08-30T08:13:52.738Z,83.39
2022-08-30T08:16:24.289Z,85.38
2022-08-30T08:18:52.547Z,84.62
2022-08-30T08:21:19.873Z,83.57
2022-08-30T08:23:46.935Z,83.07
2022-08-30T08:26:13.517Z,79.84
2022-08-30T08:28:41.720Z,80.13
2022-08-30T08:31:16.755Z,79.23
2022-08-30T08:33:43.576Z,78.93
2022-08-30T08:36:10.515Z,77.09
2022-08-30T08:38:37.862Z,78.89
2022-08-30T08:41:07.177Z,74.12
2022-08-30T08:43:35.231Z,69.75
2022-08-30T08:46:10.394Z,70.48
2022-08-30T08:49:05.246Z,71.69
2022-08-30T08:51:53.821Z,72.89
2022-08-30T08:54:36.764Z,67.68
2022-08-30T08:57:03.450Z,68.63
2022-08-30T08:59:30.035Z,70.10
2022-08-30T09:02:03.077Z,68.73
2022-08-30T09:04:37.722Z,69.60
2022-08-30T09:07:26.291Z,66.87
2022-08-30T09:09:53.042Z,67.99
2022-08-30T09:12:21.002Z,68.44
2022-08-30T09:14:54.510Z,65.80
2022-08-30T09:17:22.840Z,65.46
2022-08-30T09:19:52.073Z,65.77
2022-08-30T09:22:26.637Z,61.53
2022-08-30T09:25:01.314Z,62.11
2022-08-30T09:27:32.620Z,62.73
2022-08-30T09:30:04.033Z,65.20
2022-08-30T09:32:40.335Z,65.05
2022-08-30T09:35:13.432Z,65.56
2022-08-30T09:37:47.696Z,63.91
2022-08-30T09:40:22.620Z,62.38
2022-08-30T09:43:25.612Z,62.46
2022-08-30T09:46:01.240Z,60.79
2022-08-30T09:48:45.362Z,60.06
2022-08-30T09:51:12.007Z,59.25
2022-08-30T09:54:17.313Z,59.34
2022-08-30T09:57:03.709Z,59.08
2022-08-30T09:59:53.903Z,59.20
2022-08-30T10:02:48.274Z,59.48
2022-08-30T10:05:52.034Z,56.85
2022-08-30T10:08:35.619Z,56.85
2022-08-30T10:11:07.743Z,56.69
2022-08-30T10:14:01.610Z,57.36
2022-08-30T10:16:49.669Z,54.85
2022-08-30T10:19:25.316Z,55.22
2022-08-30T10:22:36.889Z,58.07
2022-08-30T10:25:21.350Z,57.75
2022-08-30T10:27:56.427Z,58.25
2022-08-30T10:30:23.451Z,57.07
2022-08-30T10:33:01.659Z,55.31
2022-08-30T10:35:38.649Z,54.71
2022-08-30T10:38:23.698Z,53.92
2022-08-30T10:41:15.393Z,54.81
2022-08-30T10:43:54.605Z,54.33
2022-08-30T10:46:27.231Z,53.79
2022-08-30T10:48:56.390Z,51.19
2022-08-30T10:51:59.079Z,53.58
2022-08-30T10:54:38.979Z,53.39
2022-08-30T10:57:05.566Z,50.06
2022-08-30T10:59:33.588Z,48.99
2022-08-30T11:02:03.542Z,48.74
2022-08-30T11:04:52.952Z,49.56
2022-08-30T11:07:35.776Z,51.08
2022-08-30T11:10:11.550Z,51.77
2022-08-30T11:12:43.875Z,51.19
2022-08-30T11:15:21.547Z,52.59
2022-08-30T11:18:04.509Z,51.96
2022-08-30T11:20:37.298Z,51.67
2022-08-30T11:23:25.118Z,50.20
2022-08-30T11:26:01.739Z,49.78
2022-08-30T11:28:35.399Z,51.62
2022-08-30T11:31:07.892Z,52.06
2022-08-30T11:33:51.612Z,52.00
2022-08-30T11:36:46.083Z,50.24
2022-08-30T11:39:33.289Z,49.37
2022-08-30T11:42:24.457Z,48.45
2022-08-30T11:45:25.461Z,48.88
2022-08-30T11:48:00.662Z,49.56
2022-08-30T11:50:49.943Z,48.80
2022-08-30T11:53:42.287Z,49.08
2022-08-30T11:56:46.098Z,49.05
2022-08-30T11:59:51.722Z,50.33
2022-08-30T12:02:46.802Z,50.61
2022-08-30T12:05:45.769Z,51.57
2022-08-30T12:08:20.431Z,51.87
2022-08-30T12:10:59.449Z,51.69
2022-08-30T12:13:43.011Z,51.53
2022-08-30T12:16:14.588Z,51.90
2022-08-30T12:18:47.841Z,52.69
2022-08-30T12:21:28.184Z,52.80
2022-08-30T12:23:58.882Z,52.03
2022-08-30T12:26:51.467Z,49.19
2022-08-30T12:29:28.592Z,49.43
2022-08-30T12:32:15.615Z,50.25
2022-08-30T12:34:42.330Z,50.76
2022-08-30T12:37:23.246Z,53.32
2022-08-30T12:40:02.026Z,53.00
2022-08-30T12:42:32.761Z,51.44
2022-08-30T12:45:04.682Z,52.40
2022-08-30T12:47:44.847Z,52.59
2022-08-30T12:50:17.058Z,51.98
2022-08-30T12:52:46.442Z,50.49
2022-08-30T12:55:17.257Z,49.93
2022-08-30T12:58:04.779Z,50.48
2022-08-30T13:00:39.732Z,49.54
2022-08-30T13:03:30.349Z,49.94
2022-08-30T13:05:57.553Z,50.22
2022-08-30T13:08:45.587Z,49.80
2022-08-30T13:11:26.088Z,49.30
2022-08-30T13:14:14.680Z,51.27
2022-08-30T13:16:44.665Z,50.52
2022-08-30T13:19:31.675Z,49.18
2022-08-30T13:21:59.413Z,50.27
2022-08-30T13:24:26.723Z,50.81
2022-08-30T13:27:02.027Z,50.44
2022-08-30T13:29:29.255Z,49.32
2022-08-30T13:31:56.279Z,50.02
2022-08-30T13:34:23.551Z,50.48
2022-08-30T13:36:54.180Z,51.55
2022-08-30T13:39:21.696Z,52.43
2022-08-30T13:41:48.930Z,54.32
2022-08-30T13:44:15.610Z,55.80
2022-08-30T13:46:53.056Z,54.99
2022-08-30T13:52:22.192Z,55.35
2022-08-30T13:54:51.643Z,56.58
2022-08-30T14:00:12.364Z,53.67
2022-08-30T14:02:45.328Z,53.96
2022-08-30T14:05:47.138Z,54.33
2022-08-30T14:08:03.523Z,53.73
2022-08-30T14:10:32.283Z,53.94
2022-08-30T14:13:07.974Z,54.65
2022-08-30T14:15:38.749Z,54.07
2022-08-30T14:18:06.369Z,54.50
2022-08-30T14:20:38.604Z,54.54
2022-08-30T14:23:09.907Z,54.88
2022-08-30T14:25:37.661Z,54.24
2022-08-30T14:28:07.269Z,54.30
2022-08-30T14:30:33.785Z,54.34
2022-08-30T14:33:00.657Z,54.10
2022-08-30T14:35:27.271Z,54.97
2022-08-30T14:37:54.107Z,55.09
2022-08-30T14:40:20.790Z,53.03
2022-08-30T14:42:47.388Z,53.37
2022-08-30T14:45:14.082Z,53.61
2022-08-30T14:47:40.622Z,54.05
2022-08-30T14:50:07.717Z,52.83
2022-08-30T14:52:34.440Z,53.75
2022-08-30T14:55:09.057Z,54.39
2022-08-30T14:57:38.200Z,54.15
2022-08-30T15:00:08.806Z,54.97
2022-08-30T15:02:35.358Z,55.06
2022-08-30T15:05:02.017Z,54.74
2022-08-30T15:07:28.613Z,54.14
2022-08-30T15:09:55.177Z,54.92
2022-08-30T15:12:21.756Z,55.59
2022-08-30T15:14:48.619Z,55.77
2022-08-30T15:17:17.891Z,55.80
2022-08-30T15:19:44.697Z,54.75
2022-08-30T15:22:11.377Z,54.05
2022-08-30T15:24:38.020Z,54.43
2022-08-30T15:27:04.917Z,55.35
2022-08-30T15:29:32.816Z,56.85
2022-08-30T15:32:00.405Z,56.52
2022-08-30T15:34:28.334Z,54.88
2022-08-30T15:36:55.916Z,55.09
2022-08-30T15:39:23.046Z,55.28
2022-08-30T15:41:54.664Z,55.39
2022-08-30T15:44:23.839Z,56.59
2022-08-30T15:46:50.489Z,56.74
2022-08-30T15:49:20.410Z,54.49
2022-08-30T15:51:51.671Z,56.25
2022-08-30T15:54:22.891Z,57.31
2022-08-30T15:56:49.445Z,57.19
2022-08-30T15:59:17.556Z,57.79
2022-08-30T16:01:45.671Z,58.22
2022-08-30T16:04:17.137Z,59.21
2022-08-30T16:06:45.522Z,58.34
2022-08-30T16:09:12.133Z,58.99
2022-08-30T16:11:38.813Z,59.08
2022-08-30T16:14:06.046Z,60.88
2022-08-30T16:16:33.731Z,62.43
2022-08-30T16:19:01.543Z,61.50
2022-08-30T16:21:33.635Z,60.82
2022-08-30T16:24:02.631Z,59.93
2022-08-30T16:26:30.714Z,59.77
2022-08-30T16:28:58.815Z,61.17
2022-08-30T16:31:27.494Z,61.73
2022-08-30T16:33:54.673Z,61.80
2022-08-30T16:36:22.662Z,62.58
2022-08-30T16:38:53.545Z,63.19
2022-08-30T16:41:24.079Z,61.94
2022-08-30T16:43:53.543Z,60.43
2022-08-30T16:46:23.458Z,60.82
2022-08-30T16:48:59.007Z,61.63
2022-08-30T16:51:28.289Z,66.95
2022-08-30T16:54:00.398Z,68.58
2022-08-30T16:56:29.758Z,70.23
2022-08-30T16:59:02.592Z,71.41
2022-08-30T17:01:35.061Z,71.74
2022-08-30T17:04:02.106Z,73.19
2022-08-30T17:06:28.646Z,74.24
2022-08-30T17:08:56.006Z,75.56
2022-08-30T17:11:23.371Z,76.89
2022-08-30T17:13:50.993Z,77.68
2022-08-30T17:16:27.608Z,78.33
2022-08-30T17:18:59.731Z,78.72
2022-08-30T17:21:28.443Z,80.86
2022-08-30T17:23:58.502Z,81.77
2022-08-30T17:26:31.117Z,82.91
2022-08-30T17:28:58.182Z,83.37
2022-08-30T17:31:27.797Z,82.73
2022-08-30T17:34:01.245Z,85.30
2022-08-30T17:36:30.531Z,85.91
2022-08-30T17:38:57.050Z,87.23
2022-08-30T17:41:23.576Z,88.06
2022-08-30T17:43:50.087Z,88.41
2022-08-30T17:46:20.663Z,89.15
2022-08-30T17:48:47.439Z,90.31
2022-08-30T17:51:24.469Z,90.36
2022-08-30T17:53:51.034Z,92.11
2022-08-30T17:56:19.131Z,93.24
2022-08-30T17:58:47.459Z,95.90
2022-08-30T18:01:14.844Z,96.38
2022-08-30T18:03:45.322Z,97.11
2022-08-30T18:06:13.452Z,97.45
2022-08-30T18:08:40.524Z,97.55
2022-08-30T18:11:07.660Z,99.27
2022-08-30T18:13:34.711Z,100.00
2022-08-30T18:16:02.961Z,100.00
2022-08-30T18:18:30.422Z,100.00
2022-08-30T18:20:56.996Z,100.00
2022-08-30T18:23:24.350Z,100.00
2022-08-30T18:25:56.401Z,100.00
2022-08-30T18:28:22.993Z,100.00
2022-08-30T18:30:49.828Z,100.00
2022-08-30T18:33:16.941Z,100.00
2022-08-30T18:35:48.259Z,100.00
2022-08-30T18:38:15.237Z,100.00
2022-08-30T18:40:41.894Z,100.00
2022-08-30T18:43:10.456Z,100.00
2022-08-30T18:45:38.397Z,100.00
2022-08-30T18:48:05.621Z,100.00
2022-08-30T18:50:33.467Z,100.00
2022-08-30T18:53:00.843Z,100.00
2022-08-30T18:55:28.031Z,100.00
2022-08-30T18:57:55.065Z,100.00
2022-08-30T19:00:21.660Z,100.00
2022-08-30T19:02:48.334Z,100.00
2022-08-30T19:05:17.018Z,100.00
2022-08-30T19:07:44.432Z,100.00
2022-08-30T19:10:12.515Z,100.00
2022-08-30T19:12:39.780Z,100.00
2022-08-30T19:15:11.095Z,100.00
2022-08-30T19:17:39.924Z,100.00
2022-08-30T19:20:09.869Z,100.00
2022-08-30T19:23:05.878Z,100.00
2022-08-30T19:25:24.654Z,100.00
2022-08-30T19:27:51.717Z,100.00
2022-08-30T19:30:24.073Z,100.00
2022-08-30T19:32:55.578Z,100.00
2022-08-30T19:35:22.268Z,100.00
2022-08-30T19:37:48.837Z,100.00
2022-08-30T19:40:17.541Z,100.00
2022-08-30T19:42:46.426Z,100.00
2022-08-30T19:45:17.662Z,100.00
2022-08-30T19:47:45.090Z,100.00
2022-08-30T19:50:14.427Z,100.00
2022-08-30T19:52:41.013Z,100.00
2022-08-30T19:55:09.439Z,100.00
2022-08-30T19:57:36.444Z,100.00
2022-08-30T20:00:11.150Z,100.00
2022-08-30T20:02:38.184Z,100.00
2022-08-30T20:05:05.711Z,100.00
2022-08-30T20:07:35.417Z,100.00
2022-08-30T20:10:09.357Z,100.00
2022-08-30T20:12:36.754Z,100.00
2022-08-30T20:15:09.419Z,100.00
2022-08-30T20:18:02.042Z,100.00
2022-08-30T20:20:23.995Z,100.00
2022-08-30T20:22:54.330Z,100.00
2022-08-30T20:25:21.901Z,100.00
2022-08-30T20:27:49.077Z,100.00
2022-08-30T20:30:17.810Z,100.00
2022-08-30T20:32:46.641Z,100.00
2022-08-30T20:35:17.691Z,100.00
2022-08-30T20:37:45.597Z,100.00
2022-08-30T20:40:16.004Z,100.00
2022-08-30T20:42:45.857Z,100.00
2022-08-30T20:45:15.576Z,100.00
2022-08-30T20:47:42.970Z,100.00
2022-08-30T20:50:13.691Z,100.00
2022-08-30T20:52:41.126Z,100.00
2022-08-30T20:55:08.341Z,100.00
2022-08-30T20:57:35.001Z,100.00
2022-08-30T21:00:02.447Z,100.00
2022-08-30T21:02:29.045Z,100.00
2022-08-30T21:04:55.616Z,100.00
2022-08-30T21:07:22.254Z,100.00
2022-08-30T21:09:50.248Z,100.00
2022-08-30T21:12:16.814Z,100.00
2022-08-30T21:14:43.315Z,100.00
2022-08-30T21:17:10.090Z,100.00
2022-08-30T21:19:38.912Z,100.00
2022-08-30T21:22:08.594Z,100.00
2022-08-30T21:24:35.350Z,100.00
2022-08-30T21:27:02.366Z,100.00
2022-08-30T21:29:30.187Z,100.00
2022-08-30T21:31:57.574Z,100.00
2022-08-30T21:34:24.776Z,100.00
2022-08-30T21:36:51.421Z,100.00
2022-08-30T21:39:21.551Z,100.00
2022-08-30T21:41:50.175Z,100.00
2022-08-30T21:44:20.276Z,100.00
2022-08-30T21:46:48.372Z,100.00
2022-08-30T21:49:18.662Z,100.00
2022-08-30T21:51:47.592Z,100.00
2022-08-30T21:54:16.393Z,100.00
2022-08-30T21:56:45.663Z,100.00
2022-08-30T21:59:13.163Z,100.00
2022-08-30T22:01:41.518Z,100.00
2022-08-30T22:04:10.101Z,100.00
2022-08-30T22:06:38.777Z,100.00
2022-08-30T22:09:09.412Z,100.00
2022-08-30T22:11:37.017Z,100.00
2022-08-30T22:14:04.929Z,100.00
2022-08-30T22:16:31.639Z,100.00
2022-08-30T22:18:58.549Z,100.00
2022-08-30T22:21:28.522Z,100.00
2022-08-30T22:23:56.261Z,100.00
2022-08-30T22:26:24.050Z,100.00
2022-08-30T22:28:52.192Z,100.00
2022-08-30T22:31:20.521Z,100.00
2022-08-30T22:33:48.173Z,100.00
2022-08-30T22:36:24.041Z,99.68
2022-08-30T22:39:02.066Z,100.00
2022-08-30T22:41:31.716Z,100.00
2022-08-30T22:43:58.738Z,100.00
2022-08-30T22:46:29.311Z,100.00
2022-08-30T22:49:01.818Z,99.84
2022-08-30T22:51:28.348Z,99.53
2022-08-30T22:53:54.908Z,99.25
2022-08-30T22:56:24.986Z,98.78
2022-08-30T22:58:52.745Z,97.92
2022-08-30T23:01:29.475Z,99.19
2022-08-30T23:03:57.007Z,99.02
2022-08-30T23:06:23.750Z,98.80
2022-08-30T23:08:50.438Z,98.74
2022-08-30T23:11:17.420Z,98.56
2022-08-30T23:13:44.572Z,98.75
2022-08-30T23:16:12.705Z,98.29
2022-08-30T23:18:42.207Z,97.98
2022-08-30T23:21:14.711Z,97.89
2022-08-30T23:23:59.886Z,99.08
2022-08-30T23:26:45.442Z,98.66
2022-08-30T23:29:31.377Z,98.04
2022-08-30T23:32:16.885Z,97.34
2022-08-30T23:35:02.524Z,98.06
2022-08-30T23:37:48.490Z,98.18
2022-08-30T23:40:37.287Z,97.35
2022-08-30T23:43:22.377Z,97.35
2022-08-30T23:46:07.649Z,97.37
2022-08-30T23:48:52.730Z,97.57
2022-08-30T23:51:38.060Z,97.70
2022-08-30T23:54:23.667Z,96.95
2022-08-30T23:57:08.778Z,97.67
2022-08-30T23:59:54.439Z,98.41
